Time;durP1;ratioP1;P1;durP2;ratioP2;P2;SDS_P1;SDS_P2;PMS_P1;PMS_P2;Temp;Humidity;BMP_temperature;BMP_pressure;BME280_temperature;BME280_humidity;BME280_pressure;Samples;Min_cycle;Max_cycle;Signal;HPM_P1;HPM_P2
2022/07/06 00:01:53;;;;;;;1.30;0.95;;;22.90;93.30;;;;;;5091847;28;20255;-74
2022/07/06 00:04:20;;;;;;;3.22;1.08;;;22.90;93.30;;;;;;5092180;28;20201;-74
2022/07/06 00:06:49;;;;;;;2.28;1.10;;;22.80;93.00;;;;;;5092383;28;20202;-74
2022/07/06 00:09:16;;;;;;;1.42;0.88;;;22.80;93.00;;;;;;5092640;28;20274;-75
2022/07/06 00:11:43;;;;;;;0.82;0.82;;;22.90;93.50;;;;;;5092239;28;20282;-74
2022/07/06 00:14:10;;;;;;;2.90;0.90;;;22.90;93.20;;;;;;5091754;28;20739;-75
2022/07/06 00:16:37;;;;;;;2.05;1.30;;;22.80;93.20;;;;;;5091435;28;20680;-75
2022/07/06 00:19:04;;;;;;;2.38;1.13;;;22.70;92.90;;;;;;5076853;28;20302;-75
2022/07/06 00:21:31;;;;;;;2.53;0.95;;;22.80;93.00;;;;;;5091955;28;20742;-75
2022/07/06 00:24:00;;;;;;;1.05;0.90;;;22.70;93.10;;;;;;5091361;28;20734;-75
2022/07/06 00:26:27;;;;;;;1.73;1.00;;;22.70;93.30;;;;;;5091871;28;20741;-74
2022/07/06 00:28:54;;;;;;;2.35;0.88;;;22.70;93.30;;;;;;5091197;28;20221;-75
2022/07/06 00:31:21;;;;;;;2.10;0.88;;;22.60;93.30;;;;;;5091831;28;20206;-74
2022/07/06 00:33:48;;;;;;;1.35;0.90;;;22.40;93.40;;;;;;5092163;28;20254;-74
2022/07/06 00:36:15;;;;;;;0.77;0.77;;;22.40;94.80;;;;;;5091595;28;20209;-75
2022/07/06 00:38:42;;;;;;;1.60;1.45;;;22.20;93.20;;;;;;5091777;28;20275;-75
2022/07/06 00:41:12;;;;;;;2.00;1.15;;;22.10;93.90;;;;;;5091255;28;20247;-74
2022/07/06 00:43:50;;;;;;;1.15;0.82;;;22.00;94.00;;;;;;5091385;28;20255;-75
2022/07/06 00:46:17;;;;;;;0.93;0.93;;;21.90;94.00;;;;;;5091823;28;20209;-75
2022/07/06 00:48:44;;;;;;;1.15;0.90;;;21.80;94.40;;;;;;5091849;28;20700;-75
2022/07/06 00:51:13;;;;;;;1.48;0.82;;;21.70;94.80;;;;;;5091078;28;20213;-74
2022/07/06 00:53:40;;;;;;;3.05;1.30;;;21.70;96.30;;;;;;5091388;28;20673;-75
2022/07/06 00:56:08;;;;;;;4.07;1.10;;;21.70;94.70;;;;;;5090911;28;20229;-75
2022/07/06 00:58:36;;;;;;;0.82;0.82;;;21.60;94.60;;;;;;5090996;28;20229;-75
2022/07/06 01:01:03;;;;;;;0.85;0.80;;;21.60;94.20;;;;;;5091060;28;20262;-76
2022/07/06 01:03:30;;;;;;;1.00;0.85;;;21.70;95.20;;;;;;5091267;28;20198;-77
2022/07/06 01:05:57;;;;;;;1.85;0.85;;;21.60;94.80;;;;;;5091056;28;20205;-77
2022/07/06 01:08:25;;;;;;;1.13;1.10;;;21.50;96.10;;;;;;5090990;28;20209;-76
2022/07/06 01:10:52;;;;;;;1.17;0.98;;;21.50;94.90;;;;;;5090577;28;20694;-77
2022/07/06 01:13:19;;;;;;;3.13;0.95;;;21.60;95.70;;;;;;5090825;28;20684;-75
2022/07/06 01:15:48;;;;;;;4.60;1.35;;;21.50;95.40;;;;;;5091673;28;20198;-76
2022/07/06 01:18:15;;;;;;;1.65;1.00;;;21.40;95.20;;;;;;5080953;28;20443;-74
2022/07/06 01:20:43;;;;;;;1.92;1.02;;;21.40;95.20;;;;;;5087113;28;20283;-75
2022/07/06 01:23:10;;;;;;;1.05;0.95;;;21.50;96.20;;;;;;5090636;28;20577;-78
2022/07/06 01:25:37;;;;;;;2.33;0.95;;;21.50;95.80;;;;;;5090408;28;20206;-75
2022/07/06 01:28:05;;;;;;;1.45;1.00;;;21.60;95.50;;;;;;5090315;28;20202;-78
2022/07/06 01:30:32;;;;;;;1.92;1.20;;;21.60;95.50;;;;;;5090832;28;20252;-77
2022/07/06 01:32:59;;;;;;;1.08;0.82;;;21.50;96.80;;;;;;5090366;28;20208;-76
2022/07/06 01:35:30;;;;;;;1.27;1.17;;;21.40;96.10;;;;;;5090863;28;20210;-77
2022/07/06 01:37:58;;;;;;;1.58;1.00;;;21.40;96.00;;;;;;5090086;28;20673;-76
2022/07/06 01:40:25;;;;;;;2.47;1.08;;;21.30;96.20;;;;;;5090358;28;20237;-77
2022/07/06 01:42:52;;;;;;;3.92;1.13;;;21.30;96.70;;;;;;5090285;28;20590;-77
2022/07/06 01:45:19;;;;;;;2.60;0.73;;;21.20;96.30;;;;;;5090695;28;20274;-76
2022/07/06 01:47:46;;;;;;;2.00;1.17;;;21.10;96.90;;;;;;5091026;28;20275;-76
2022/07/06 01:50:13;;;;;;;0.98;0.90;;;21.10;96.40;;;;;;5090141;28;20286;-76
2022/07/06 01:52:40;;;;;;;1.92;1.50;;;21.00;97.00;;;;;;5090640;28;20665;-75
2022/07/06 01:55:09;;;;;;;0.98;0.80;;;21.10;99.90;;;;;;5090136;28;20263;-76
2022/07/06 01:57:36;;;;;;;1.17;0.70;;;21.00;96.80;;;;;;5090692;28;20209;-75
2022/07/06 02:00:06;;;;;;;1.27;1.15;;;21.00;97.00;;;;;;5090281;28;20282;-75
2022/07/06 02:02:33;;;;;;;1.60;1.02;;;21.00;98.10;;;;;;5090796;28;20262;-75
2022/07/06 02:05:00;;;;;;;1.63;1.02;;;21.00;97.50;;;;;;5089986;28;20201;-76
2022/07/06 02:07:27;;;;;;;1.02;1.00;;;20.90;96.90;;;;;;5090461;28;20209;-75
2022/07/06 02:09:54;;;;;;;1.33;1.23;;;20.90;97.10;;;;;;5089864;28;20614;-76
2022/07/06 02:12:22;;;;;;;2.35;1.17;;;21.00;97.90;;;;;;5090447;28;20209;-75
2022/07/06 02:14:49;;;;;;;1.35;1.23;;;20.90;97.30;;;;;;5090349;28;20209;-76
2022/07/06 02:17:16;;;;;;;2.20;1.08;;;20.90;97.80;;;;;;5088777;28;20209;-75
2022/07/06 02:19:43;;;;;;;2.08;1.15;;;20.90;98.10;;;;;;5078187;28;20282;-75
2022/07/06 02:22:10;;;;;;;1.08;0.98;;;20.80;97.80;;;;;;5089695;28;20210;-75
2022/07/06 02:24:37;;;;;;;1.60;1.05;;;20.80;97.90;;;;;;5090088;28;20202;-75
2022/07/06 02:27:04;;;;;;;1.77;0.70;;;20.80;1.00;;;;;;5089770;28;20206;-76
2022/07/06 02:29:33;;;;;;;1.77;1.40;;;20.70;99.20;;;;;;5090097;28;20255;-76
2022/07/06 02:32:00;;;;;;;3.58;1.20;;;20.80;98.40;;;;;;5089761;28;20624;-76
2022/07/06 02:34:26;;;;;;;1.60;1.23;;;20.80;98.70;;;;;;5073410;28;20214;-76
2022/07/06 02:36:53;;;;;;;1.30;1.00;;;20.70;98.60;;;;;;5069991;28;20279;-76
2022/07/06 02:39:21;;;;;;;1.88;1.77;;;;;;;;;;5074166;28;20295;-75
2022/07/06 02:41:47;;;;;;;1.80;1.08;;;20.60;82.40;;;;;;5093629;28;20222;-74
2022/07/06 02:44:14;;;;;;;2.25;1.02;;;20.60;99.60;;;;;;5079894;28;20263;-75
2022/07/06 02:46:43;;;;;;;1.30;1.08;;;20.60;99.20;;;;;;5093662;28;20669;-75
2022/07/06 02:49:10;;;;;;;2.88;1.35;;;20.60;99.00;;;;;;5093423;28;20209;-74
2022/07/06 02:51:37;;;;;;;1.30;1.13;;;20.60;99.00;;;;;;5093870;28;20209;-75
2022/07/06 02:54:04;;;;;;;2.13;0.80;;;20.50;99.10;;;;;;5092971;28;20247;-75
2022/07/06 02:56:31;;;;;;;2.00;1.27;;;20.50;99.60;;;;;;5093704;28;20262;-75
2022/07/06 02:58:58;;;;;;;2.92;1.77;;;20.60;99.90;;;;;;5092995;28;20662;-75
2022/07/06 03:01:25;;;;;;;1.33;1.23;;;20.60;99.90;;;;;;5093638;28;20666;-75
2022/07/06 03:03:53;;;;;;;2.08;1.10;;;20.70;99.80;;;;;;5093138;28;20210;-76
2022/07/06 03:06:20;;;;;;;3.13;1.20;;;20.80;99.90;;;;;;5093564;28;20285;-76
2022/07/06 03:08:47;;;;;;;2.60;1.20;;;20.80;99.90;;;;;;5081876;28;20213;-75
2022/07/06 03:11:14;;;;;;;1.10;1.10;;;20.70;99.90;;;;;;5091160;28;20220;-75
2022/07/06 03:13:41;;;;;;;1.13;1.00;;;20.70;99.90;;;;;;5093348;28;20623;-76
2022/07/06 03:16:08;;;;;;;1.38;0.98;;;20.60;99.90;;;;;;5092511;28;20214;-76
2022/07/06 03:18:35;;;;;;;2.40;1.42;;;20.40;99.90;;;;;;5093617;28;20258;-76
2022/07/06 03:21:03;;;;;;;1.75;1.42;;;20.40;99.90;;;;;;5092697;28;20229;-76
2022/07/06 03:23:31;;;;;;;1.17;1.08;;;20.50;99.90;;;;;;5093164;28;20209;-76
2022/07/06 03:25:58;;;;;;;1.30;1.13;;;20.40;99.90;;;;;;5092610;28;20206;-76
2022/07/06 03:28:25;;;;;;;1.60;1.33;;;20.30;99.90;;;;;;5092739;28;20210;-76
2022/07/06 03:30:52;;;;;;;0.70;0.70;;;20.20;99.90;;;;;;5092688;28;20742;-76
2022/07/06 03:33:19;;;;;;;1.73;1.35;;;20.10;99.90;;;;;;5093534;28;20255;-75
2022/07/06 03:35:46;;;;;;;1.67;1.00;;;20.00;99.90;;;;;;5093211;28;20206;-75
2022/07/06 03:38:14;;;;;;;1.23;1.13;;;19.90;99.90;;;;;;5092322;28;20262;-76
2022/07/06 03:40:41;;;;;;;1.73;0.90;;;19.90;91.70;;;;;;5092752;28;20229;-75
2022/07/06 03:43:08;;;;;;;3.03;1.20;;;20.00;99.90;;;;;;5078834;28;20252;-75
2022/07/06 03:45:35;;;;;;;2.65;1.35;;;19.40;92.20;;;;;;5092555;28;20201;-74
2022/07/06 03:48:02;;;;;;;2.42;1.27;;;19.90;99.90;;;;;;5092572;28;20201;-75
2022/07/06 03:50:29;;;;;;;2.00;1.27;;;19.90;99.90;;;;;;5092347;28;20258;-75
2022/07/06 03:52:56;;;;;;;1.10;1.00;;;19.80;99.90;;;;;;5091289;28;20206;-75
2022/07/06 03:55:24;;;;;;;2.40;1.25;;;19.70;99.90;;;;;;5092655;28;20258;-75
2022/07/06 03:57:51;;;;;;;1.48;1.05;;;19.60;99.90;;;;;;5092246;28;20201;-75
2022/07/06 04:00:18;;;;;;;1.52;1.25;;;19.60;99.90;;;;;;5092781;28;20237;-75
2022/07/06 04:02:45;;;;;;;3.15;1.85;;;19.60;99.90;;;;;;5093172;28;20197;-75
2022/07/06 04:05:12;;;;;;;1.40;1.13;;;19.70;99.90;;;;;;5091839;28;20267;-75
2022/07/06 04:07:39;;;;;;;1.42;1.23;;;19.70;99.90;;;;;;5092247;28;20251;-75
2022/07/06 04:10:08;;;;;;;4.40;1.38;;;19.80;99.90;;;;;;5091756;28;20669;-75
2022/07/06 04:12:42;;;;;;;1.48;1.38;;;19.80;99.90;;;;;;5092215;28;20213;-75
2022/07/06 04:15:10;;;;;;;3.42;1.30;;;19.80;99.90;;;;;;5091578;28;20209;-75
2022/07/06 04:17:52;;;;;;;0.93;0.82;;;19.40;1.00;;;;;;5092069;28;20253;-75
2022/07/06 04:20:19;;;;;;;3.00;1.30;;;20.00;99.90;;;;;;5091792;28;20229;-75
2022/07/06 04:22:47;;;;;;;1.17;1.08;;;19.70;94.30;;;;;;5092036;28;20206;-78
2022/07/06 04:25:14;;;;;;;1.17;1.10;;;19.70;99.90;;;;;;5091499;28;20697;-77
2022/07/06 04:27:43;;;;;;;1.67;1.05;;;19.70;99.90;;;;;;5091953;28;20202;-77
2022/07/06 04:30:11;;;;;;;1.60;1.40;;;20.60;99.40;;;;;;5091770;28;20214;-77
2022/07/06 04:32:38;;;;;;;1.88;1.70;;;19.70;99.90;;;;;;5091890;28;20285;-77
2022/07/06 04:35:06;;;;;;;4.15;1.75;;;19.70;99.90;;;;;;5091239;28;20242;-77
2022/07/06 04:37:33;;;;;;;1.75;1.25;;;19.50;99.90;;;;;;5091705;28;20259;-77
2022/07/06 04:40:00;;;;;;;1.65;1.20;;;19.50;99.90;;;;;;5091178;28;20283;-77
2022/07/06 04:42:27;;;;;;;2.60;2.08;;;19.50;99.90;;;;;;5083965;28;20265;-76
2022/07/06 04:44:55;;;;;;;1.40;1.30;;;19.50;99.90;;;;;;5085168;28;20210;-77
2022/07/06 04:47:22;;;;;;;2.25;1.08;;;19.60;99.90;;;;;;5091534;28;20209;-76
2022/07/06 04:49:49;;;;;;;1.77;1.23;;;19.70;99.90;;;;;;5091198;28;20209;-77
2022/07/06 04:52:16;;;;;;;1.17;1.08;;;19.90;99.90;;;;;;5091740;28;20213;-76
2022/07/06 04:54:43;;;;;;;3.22;1.70;;;19.90;99.90;;;;;;5091379;28;20205;-77
2022/07/06 04:57:10;;;;;;;1.65;1.48;;;19.90;99.90;;;;;;5090825;28;20217;-77
2022/07/06 04:59:37;;;;;;;1.02;0.93;;;20.10;99.90;;;;;;5091522;28;20630;-77
2022/07/06 05:02:06;;;;;;;1.20;0.90;;;20.00;99.90;;;;;;5090912;28;20205;-76
2022/07/06 05:04:33;;;;;;;3.08;0.95;;;20.00;99.90;;;;;;5089730;28;20736;-76
2022/07/06 05:07:00;;;;;;;3.05;1.10;;;20.00;99.90;;;;;;5091197;28;20202;-75
2022/07/06 05:09:27;;;;;;;1.63;1.30;;;20.10;99.90;;;;;;5090992;28;20201;-76
2022/07/06 05:11:54;;;;;;;1.48;1.33;;;20.30;99.90;;;;;;5090832;28;20213;-76
2022/07/06 05:14:21;;;;;;;3.33;1.13;;;20.50;99.90;;;;;;5091138;28;20616;-75
2022/07/06 05:16:48;;;;;;;6.50;1.48;;;20.50;99.90;;;;;;5081492;28;20214;-79
2022/07/06 05:19:17;;;;;;;1.23;1.10;;;20.50;99.90;;;;;;5085238;28;20205;-75
2022/07/06 05:21:44;;;;;;;4.15;1.50;;;20.50;99.90;;;;;;5087804;28;20713;-75
2022/07/06 05:24:10;;;;;;;1.75;1.10;;;20.40;99.90;;;;;;5090582;28;20275;-76
2022/07/06 05:26:37;;;;;;;2.20;1.38;;;20.50;99.90;;;;;;5090864;28;20258;-75
2022/07/06 05:29:04;;;;;;;2.90;1.48;;;20.40;99.90;;;;;;5090043;28;20251;-76
2022/07/06 05:31:31;;;;;;;3.08;1.52;;;20.50;99.90;;;;;;5090685;28;20237;-75
2022/07/06 05:33:58;;;;;;;2.53;1.30;;;20.50;99.90;;;;;;5090436;28;20212;-76
2022/07/06 05:36:27;;;;;;;2.40;1.35;;;20.60;99.90;;;;;;5091266;28;20259;-77
2022/07/06 05:38:53;;;;;;;1.70;1.30;;;20.60;99.90;;;;;;5090301;28;20205;-77
2022/07/06 05:41:20;;;;;;;9.65;3.53;;;20.70;99.90;;;;;;5090794;28;20225;-75
2022/07/06 05:43:48;;;;;;;1.33;1.20;;;20.80;99.90;;;;;;5076706;28;20619;-76
2022/07/06 05:46:15;;;;;;;6.85;1.52;;;20.80;99.90;;;;;;5090952;28;20330;-78
2022/07/06 05:51:27;;;;;;;2.22;1.38;;;20.80;99.90;;;;;;5081684;28;20209;-75
2022/07/06 05:53:54;;;;;;;1.63;1.00;;;20.60;99.90;;;;;;5088107;28;20251;-74
2022/07/06 05:56:21;;;;;;;5.30;2.10;;;20.50;99.90;;;;;;5086185;28;20202;-74
2022/07/06 05:58:48;;;;;;;3.05;1.42;;;20.50;99.90;;;;;;5090547;28;20541;-74
2022/07/06 06:01:15;;;;;;;1.38;1.10;;;20.60;99.90;;;;;;5081034;28;20233;-74
2022/07/06 06:03:42;;;;;;;3.03;1.17;;;20.70;99.90;;;;;;5090438;28;20213;-73
2022/07/06 06:06:09;;;;;;;3.08;1.90;;;20.70;99.90;;;;;;5089785;28;20677;-74
2022/07/06 06:08:37;;;;;;;3.88;1.33;;;20.70;99.90;;;;;;5090180;28;20208;-73
2022/07/06 06:11:04;;;;;;;2.00;1.88;;;20.70;99.90;;;;;;5089887;28;20206;-72
2022/07/06 06:13:31;;;;;;;2.35;1.45;;;20.70;99.90;;;;;;5090413;28;20213;-72
2022/07/06 06:15:58;;;;;;;1.42;1.33;;;20.70;99.90;;;;;;5091937;28;20209;-72
2022/07/06 06:18:25;;;;;;;2.65;1.30;;;20.70;99.90;;;;;;5094500;28;20209;-74
2022/07/06 06:20:52;;;;;;;1.98;1.33;;;20.70;99.90;;;;;;5093737;28;20298;-74
2022/07/06 06:23:19;;;;;;;2.15;1.50;;;20.80;99.90;;;;;;5094365;28;20212;-74
2022/07/06 06:25:47;;;;;;;1.58;1.35;;;20.90;99.90;;;;;;5094617;28;20217;-75
2022/07/06 06:28:14;;;;;;;2.15;1.55;;;21.00;99.90;;;;;;5094132;28;20613;-75
2022/07/06 06:30:41;;;;;;;4.35;1.15;;;21.00;99.90;;;;;;5093836;28;20630;-74
2022/07/06 06:33:10;;;;;;;1.83;1.33;;;21.10;99.90;;;;;;5093998;28;20201;-75
2022/07/06 06:35:37;;;;;;;5.65;1.30;;;21.10;99.90;;;;;;5094180;28;20243;-75
2022/07/06 06:38:05;;;;;;;5.80;1.40;;;21.20;99.90;;;;;;5093509;28;20201;-75
2022/07/06 06:40:32;;;;;;;2.70;1.75;;;21.40;99.90;;;;;;5093802;28;20696;-74
2022/07/06 06:43:00;;;;;;;1.73;1.40;;;21.40;99.90;;;;;;5080553;28;20214;-74
2022/07/06 06:45:27;;;;;;;5.10;2.72;;;21.40;99.90;;;;;;5090453;28;20592;-74
2022/07/06 06:47:54;;;;;;;1.85;1.60;;;21.40;99.90;;;;;;5093489;28;20209;-74
2022/07/06 06:50:22;;;;;;;2.50;1.40;;;21.40;99.90;;;;;;5090824;28;20210;-74
2022/07/06 06:52:49;;;;;;;3.40;2.20;;;21.50;99.90;;;;;;5094095;28;20205;-74
2022/07/06 06:55:17;;;;;;;7.15;1.80;;;21.70;99.90;;;;;;5093931;28;20206;-74
2022/07/06 06:57:44;;;;;;;1.77;1.25;;;21.80;99.90;;;;;;5093861;28;20246;-74
2022/07/06 07:00:14;;;;;;;3.40;1.55;;;21.90;99.90;;;;;;5093040;28;20263;-74
2022/07/06 07:02:41;;;;;;;1.70;1.60;;;21.90;99.90;;;;;;5093820;28;20255;-74
2022/07/06 07:05:08;;;;;;;6.28;2.25;;;21.90;99.90;;;;;;5093097;28;20201;-74
2022/07/06 07:07:36;;;;;;;2.65;1.45;;;22.00;99.90;;;;;;5093209;28;20746;-74
2022/07/06 07:10:04;;;;;;;3.65;1.67;;;22.10;99.90;;;;;;5093342;28;20202;-74
2022/07/06 07:12:31;;;;;;;2.22;1.50;;;22.20;99.90;;;;;;5093318;28;20216;-74
2022/07/06 07:14:58;;;;;;;2.10;1.42;;;22.30;99.90;;;;;;5092858;28;20255;-74
2022/07/06 07:17:26;;;;;;;1.58;1.15;;;22.40;99.90;;;;;;5093145;28;20206;-75
2022/07/06 07:19:53;;;;;;;2.17;1.80;;;22.50;99.90;;;;;;5092605;28;20209;-74
2022/07/06 07:22:20;;;;;;;4.78;1.77;;;22.40;99.90;;;;;;5093424;28;20248;-74
2022/07/06 07:24:47;;;;;;;4.18;1.40;;;22.60;99.90;;;;;;5084205;28;20263;-75
2022/07/06 07:27:14;;;;;;;4.65;2.50;;;22.90;99.90;;;;;;5079186;28;20201;-73
2022/07/06 07:29:41;;;;;;;4.93;1.80;;;23.20;99.90;;;;;;5092187;28;20255;-73
2022/07/06 07:32:08;;;;;;;3.90;1.27;;;23.60;99.90;;;;;;5092663;28;20254;-74
2022/07/06 07:34:37;;;;;;;3.60;1.63;;;23.60;99.90;;;;;;5092742;28;20210;-73
2022/07/06 07:37:04;;;;;;;4.90;1.63;;;23.60;99.90;;;;;;5087704;28;20202;-72
2022/07/06 07:39:31;;;;;;;1.40;1.25;;;23.70;99.90;;;;;;5085947;28;20569;-73
2022/07/06 07:41:58;;;;;;;1.50;1.30;;;23.70;99.90;;;;;;5071866;28;20256;-75
2022/07/06 07:44:27;;;;;;;4.10;1.55;;;23.70;99.90;;;;;;5082296;28;20221;-75
2022/07/06 07:46:54;;;;;;;2.38;1.55;;;23.70;99.90;;;;;;5092120;28;20209;-74
2022/07/06 07:49:21;;;;;;;6.25;2.20;;;23.70;99.90;;;;;;5093027;28;20266;-74
2022/07/06 07:51:49;;;;;;;5.35;2.28;;;23.70;99.90;;;;;;5092972;28;20209;-72
2022/07/06 07:54:16;;;;;;;2.33;1.38;;;23.70;99.90;;;;;;5093116;28;20209;-74
2022/07/06 07:56:43;;;;;;;1.75;1.65;;;23.70;99.90;;;;;;5092554;28;20209;-72
2022/07/06 07:59:11;;;;;;;2.15;1.48;;;23.70;99.90;;;;;;5091809;28;20275;-72
2022/07/06 08:01:38;;;;;;;1.52;1.42;;;23.70;99.90;;;;;;5091096;28;20224;-71
2022/07/06 08:04:05;;;;;;;7.68;2.15;;;23.80;99.90;;;;;;5083678;28;20201;-72
2022/07/06 08:06:33;;;;;;;1.92;1.60;;;23.80;99.90;;;;;;5075347;28;20252;-72
2022/07/06 08:09:03;;;;;;;6.07;1.48;;;23.90;99.90;;;;;;5072833;28;20297;-72
2022/07/06 08:11:30;;;;;;;1.90;1.20;;;23.90;99.90;;;;;;5083024;28;20689;-73
2022/07/06 08:13:57;;;;;;;3.65;1.77;;;23.90;99.90;;;;;;5080260;28;20668;-73
2022/07/06 08:16:24;;;;;;;1.55;0.90;;;23.70;99.90;;;;;;5086129;28;20205;-72
2022/07/06 08:18:51;;;;;;;1.58;1.08;;;23.80;99.90;;;;;;5083946;28;20213;-72
2022/07/06 08:21:18;;;;;;;1.42;1.20;;;23.80;99.90;;;;;;5085895;28;20233;-72
2022/07/06 08:23:45;;;;;;;8.07;1.52;;;24.00;99.90;;;;;;5091660;28;20213;-73
2022/07/06 08:26:13;;;;;;;2.63;0.90;;;24.10;99.90;;;;;;5090888;28;20669;-75
2022/07/06 08:28:40;;;;;;;6.53;5.85;;;24.20;99.90;;;;;;5092012;28;20218;-73
2022/07/06 08:31:07;;;;;;;3.85;1.05;;;24.20;99.90;;;;;;5087698;28;20206;-74
2022/07/06 08:33:34;;;;;;;2.55;1.40;;;24.20;99.90;;;;;;5091138;28;20612;-75
2022/07/06 08:36:01;;;;;;;3.20;1.25;;;24.20;99.90;;;;;;5091514;28;20262;-74
2022/07/06 08:38:28;;;;;;;1.92;1.15;;;24.20;99.90;;;;;;5091229;28;20210;-73
2022/07/06 08:40:56;;;;;;;1.98;1.17;;;24.20;99.90;;;;;;5090690;28;20206;-74
2022/07/06 08:43:24;;;;;;;1.38;1.27;;;24.30;99.90;;;;;;5077069;28;20260;-73
2022/07/06 08:45:54;;;;;;;1.83;1.30;;;24.40;99.90;;;;;;5087994;28;20205;-72
2022/07/06 08:48:24;;;;;;;3.28;1.33;;;24.70;99.90;;;;;;5089481;28;20213;-73
2022/07/06 08:50:52;;;;;;;4.45;1.00;;;24.90;99.90;;;;;;5091489;28;20205;-72
2022/07/06 08:53:20;;;;;;;4.38;1.38;;;25.00;99.90;;;;;;5091719;28;20618;-73
2022/07/06 08:55:48;;;;;;;3.10;1.80;;;25.00;99.90;;;;;;5091302;28;20205;-73
2022/07/06 08:58:16;;;;;;;4.25;2.00;;;25.50;99.90;;;;;;5091324;28;20620;-73
2022/07/06 09:00:45;;;;;;;4.93;1.75;;;26.30;99.90;;;;;;5091147;28;20205;-73
2022/07/06 09:03:13;;;;;;;3.60;1.30;;;26.70;99.90;;;;;;5091031;28;20209;-73
2022/07/06 09:05:43;;;;;;;2.20;2.00;;;27.10;99.90;;;;;;5091139;28;20697;-73
2022/07/06 09:08:10;;;;;;;1.92;1.48;;;27.00;99.90;;;;;;5090804;28;20213;-74
2022/07/06 09:10:38;;;;;;;1.33;1.23;;;26.30;99.90;;;;;;5090830;28;20270;-73
2022/07/06 09:13:06;;;;;;;1.80;1.45;;;26.10;99.90;;;;;;5090712;28;20245;-72
2022/07/06 09:15:34;;;;;;;2.30;1.67;;;25.90;99.90;;;;;;5091106;28;20205;-73
2022/07/06 09:18:04;;;;;;;2.95;1.20;;;25.90;99.90;;;;;;5090811;28;20214;-73
2022/07/06 09:20:34;;;;;;;1.60;1.50;;;25.70;99.90;;;;;;5090920;28;20673;-73
2022/07/06 09:23:02;;;;;;;2.80;1.30;;;25.40;99.90;;;;;;5090392;28;20708;-71
2022/07/06 09:25:31;;;;;;;3.35;1.60;;;25.50;99.90;;;;;;5090763;28;20742;-70
2022/07/06 09:27:59;;;;;;;2.47;1.50;;;25.50;99.90;;;;;;5090329;28;20202;-70
2022/07/06 09:30:27;;;;;;;1.92;1.25;;;25.60;99.90;;;;;;5090887;28;20260;-70
2022/07/06 09:32:56;;;;;;;3.42;1.25;;;25.70;99.90;;;;;;5090487;28;20209;-71
2022/07/06 09:35:26;;;;;;;8.30;1.65;;;26.20;99.90;;;;;;5090685;28;20268;-71
2022/07/06 09:38:04;;;;;;;4.15;1.42;;;26.70;99.90;;;;;;5090432;28;20255;-71
2022/07/06 09:40:33;;;;;;;3.08;1.75;;;27.10;99.90;;;;;;5090521;28;20262;-70
2022/07/06 09:43:10;;;;;;;2.63;1.25;;;27.20;99.90;;;;;;5082276;28;20229;-71
2022/07/06 09:45:38;;;;;;;1.80;1.50;;;27.30;99.90;;;;;;5090534;28;20201;-73
2022/07/06 09:48:11;;;;;;;2.00;1.15;;;27.00;99.90;;;;;;5090392;28;20665;-73
2022/07/06 09:50:44;;;;;;;1.95;1.30;;;26.60;99.90;;;;;;5089953;28;20255;-75
2022/07/06 09:53:12;;;;;;;3.60;1.80;;;26.50;99.90;;;;;;5090006;28;20217;-69
2022/07/06 09:55:39;;;;;;;2.22;1.52;;;26.70;99.90;;;;;;5090696;28;20625;-70
2022/07/06 09:58:06;;;;;;;2.45;1.25;;;27.00;99.90;;;;;;5090170;28;20202;-72
2022/07/06 10:00:33;;;;;;;3.25;2.08;;;27.10;99.90;;;;;;5090459;28;20616;-70
2022/07/06 10:03:01;;;;;;;1.38;1.27;;;27.10;99.90;;;;;;5089933;28;20237;-69
2022/07/06 10:05:30;;;;;;;3.03;1.30;;;27.00;99.90;;;;;;5090368;28;20235;-71
2022/07/06 10:08:00;;;;;;;7.43;1.85;;;26.80;99.90;;;;;;5089988;28;20258;-72
2022/07/06 10:10:28;;;;;;;2.63;1.30;;;26.60;99.90;;;;;;5090257;28;20259;-72
2022/07/06 10:12:57;;;;;;;2.08;1.40;;;26.40;99.90;;;;;;5089972;28;20217;-71
2022/07/06 10:15:26;;;;;;;1.17;1.17;;;26.30;99.90;;;;;;5090377;28;20258;-71
2022/07/06 10:17:54;;;;;;;3.97;2.10;;;26.40;99.90;;;;;;5084563;28;20271;-74
2022/07/06 10:20:22;;;;;;;2.13;1.50;;;27.80;99.90;;;;;;5080077;28;20255;-73
2022/07/06 10:22:50;;;;;;;3.97;1.50;;;28.40;99.90;;;;;;5089937;28;20260;-72
2022/07/06 10:25:19;;;;;;;1.70;1.50;;;29.00;99.90;;;;;;5090474;28;20201;-74
2022/07/06 10:27:48;;;;;;;1.20;1.00;;;30.40;99.90;;;;;;5090596;28;20254;-75
2022/07/06 10:30:16;;;;;;;1.75;1.38;;;32.80;99.90;;;;;;5090322;28;20288;-73
2022/07/06 10:32:46;;;;;;;2.00;1.30;;;35.30;99.90;;;;;;5090472;28;20221;-74
2022/07/06 10:35:13;;;;;;;3.08;1.77;;;35.20;99.90;;;;;;5075857;28;20210;-74
2022/07/06 10:37:41;;;;;;;2.40;1.92;;;34.60;99.90;;;;;;5089966;28;20206;-76
2022/07/06 10:42:59;;;;;;;1.77;1.67;;;31.90;99.90;;;;;;5070323;28;20435;-71
2022/07/06 10:45:56;;;;;;;1.95;1.25;;;30.20;99.90;;;;;;5085687;28;20627;-72
2022/07/06 10:48:23;;;;;;;1.58;1.35;;;29.70;99.90;;;;;;5085703;28;20202;-73
2022/07/06 10:50:52;;;;;;;2.55;1.08;;;29.00;99.90;;;;;;5090048;28;20206;-72
2022/07/06 10:53:23;;;;;;;2.90;1.10;;;29.00;99.90;;;;;;5090390;28;20259;-70
2022/07/06 10:55:51;;;;;;;1.58;1.15;;;28.80;99.90;;;;;;5088965;28;20293;-71
2022/07/06 10:58:48;;;;;;;1.13;1.08;;;28.80;99.90;;;;;;5090262;28;20734;-72
2022/07/06 11:01:15;;;;;;;3.00;1.35;;;28.60;99.90;;;;;;5078720;28;20673;-73
2022/07/06 11:03:44;;;;;;;2.28;1.60;;;28.40;99.90;;;;;;5093675;28;20282;-72
2022/07/06 11:06:14;;;;;;;5.30;1.73;;;28.50;99.90;;;;;;5093000;28;20688;-72
2022/07/06 11:08:49;;;;;;;1.20;1.08;;;28.50;99.90;;;;;;5093441;28;20680;-72
2022/07/06 11:11:18;;;;;;;2.58;1.83;;;28.70;99.90;;;;;;5093841;28;20221;-73
2022/07/06 11:13:52;;;;;;;1.17;0.98;;;29.00;99.90;;;;;;5093790;28;20237;-72
2022/07/06 11:16:19;;;;;;;3.83;1.27;;;28.90;99.90;;;;;;5079931;28;20205;-73
2022/07/06 11:18:51;;;;;;;7.97;2.28;;;29.10;99.90;;;;;;5093798;28;20270;-72
2022/07/06 11:21:23;;;;;;;2.33;1.33;;;29.20;99.90;;;;;;5093309;28;20213;-72
2022/07/06 11:23:51;;;;;;;2.42;1.13;;;29.30;99.90;;;;;;5093443;28;20289;-72
2022/07/06 11:26:18;;;;;;;2.58;0.95;;;29.50;99.90;;;;;;5088312;28;20220;-73
2022/07/06 11:28:48;;;;;;;1.35;1.08;;;29.60;99.90;;;;;;5084342;28;20293;-73
2022/07/06 11:31:17;;;;;;;5.28;1.35;;;29.60;99.90;;;;;;5092855;28;20284;-73
2022/07/06 11:33:47;;;;;;;4.93;1.15;;;29.50;99.90;;;;;;5092945;28;20681;-72
2022/07/06 11:36:19;;;;;;;4.65;1.20;;;29.30;99.90;;;;;;5092109;28;20231;-72
2022/07/06 11:38:47;;;;;;;1.23;1.10;;;29.60;99.90;;;;;;5093274;28;20737;-71
2022/07/06 11:41:15;;;;;;;2.97;1.58;;;29.60;99.90;;;;;;5092491;28;20672;-71
2022/07/06 11:43:45;;;;;;;1.55;1.38;;;29.40;99.90;;;;;;5078564;28;20233;-73
2022/07/06 11:46:27;;;;;;;3.58;1.23;;;29.10;99.90;;;;;;5092746;28;20205;-70
2022/07/06 11:48:56;;;;;;;2.33;1.20;;;29.00;99.90;;;;;;5092262;28;20197;-71
2022/07/06 11:51:25;;;;;;;1.77;1.20;;;29.20;99.90;;;;;;5092810;28;20270;-70
2022/07/06 11:53:54;;;;;;;3.30;1.50;;;29.20;99.90;;;;;;5092001;28;20206;-70
2022/07/06 11:56:25;;;;;;;2.05;1.10;;;29.20;99.90;;;;;;5092012;28;20205;-70
2022/07/06 11:58:52;;;;;;;1.05;0.88;;;28.80;99.90;;;;;;5088828;28;20289;-71
2022/07/06 12:01:20;;;;;;;3.47;1.30;;;28.70;99.90;;;;;;5086919;28;20669;-71
2022/07/06 12:03:48;;;;;;;1.60;1.33;;;28.60;99.90;;;;;;5088580;28;20244;-70
2022/07/06 12:06:17;;;;;;;2.45;1.17;;;28.70;99.90;;;;;;5080895;28;20255;-73
2022/07/06 12:08:46;;;;;;;1.92;1.45;;;28.40;99.90;;;;;;5086372;28;20661;-70
2022/07/06 12:11:20;;;;;;;6.93;1.63;;;28.40;99.80;;;;;;5089351;28;20213;-71
2022/07/06 12:13:47;;;;;;;2.75;1.77;;;28.60;99.90;;;;;;5090138;28;20244;-71
2022/07/06 12:16:16;;;;;;;2.47;1.35;;;28.70;99.90;;;;;;5088527;28;20273;-74
2022/07/06 12:18:43;;;;;;;2.33;1.55;;;28.90;99.90;;;;;;5076972;28;20210;-73
2022/07/06 12:21:16;;;;;;;1.75;1.65;;;29.00;99.90;;;;;;5071297;28;20979;-71
2022/07/06 12:23:45;;;;;;;3.53;1.02;;;29.30;99.90;;;;;;5077697;28;20233;-72
2022/07/06 12:26:12;;;;;;;1.73;1.20;;;29.70;99.90;;;;;;5086917;28;20263;-73
2022/07/06 12:28:39;;;;;;;3.08;0.88;;;29.80;99.90;;;;;;5089580;28;20354;-72
2022/07/06 12:31:06;;;;;;;4.97;1.63;;;29.90;99.90;;;;;;5090407;28;20249;-73
2022/07/06 12:33:34;;;;;;;2.03;1.30;;;29.80;99.20;;;;;;5090806;28;20213;-74
2022/07/06 12:36:16;;;;;;;1.10;0.90;;;29.30;98.70;;;;;;5085835;28;20202;-73
2022/07/06 12:38:48;;;;;;;5.85;1.73;;;29.40;99.60;;;;;;5089157;28;20202;-73
2022/07/06 12:41:29;;;;;;;1.15;0.95;;;29.40;99.10;;;;;;5085861;28;20358;-73
2022/07/06 12:44:07;;;;;;;1.50;1.10;;;29.40;98.60;;;;;;5086143;28;20229;-72
2022/07/06 12:46:37;;;;;;;0.98;0.98;;;29.50;98.50;;;;;;5088006;28;20205;-72
2022/07/06 12:49:12;;;;;;;2.88;1.27;;;29.40;97.60;;;;;;5084988;28;20206;-74
2022/07/06 12:51:58;;;;;;;2.25;1.45;;;29.30;97.80;;;;;;5088804;28;20256;-73
2022/07/06 12:54:27;;;;;;;1.08;0.93;;;29.60;98.10;;;;;;5086649;28;20673;-74
2022/07/06 12:56:58;;;;;;;4.05;1.40;;;29.60;97.70;;;;;;5088748;28;20210;-71
2022/07/06 12:59:25;;;;;;;4.57;1.35;;;29.70;98.10;;;;;;5081115;28;20202;-74